sensor_id;sensor_type;location;lat;lon;timestamp;pressure;altitude;pressure_sealevel;temperature;humidity
5966;BME280;3009;43.224;27.976;2023-04-27T00:02:25;99787.41;;;8.85;100.00
5966;BME280;3009;43.224;27.976;2023-04-27T00:04:53;99780.00;;;8.82;100.00
5966;BME280;3009;43.224;27.976;2023-04-27T00:07:23;99788.66;;;8.79;100.00
5966;BME280;3009;43.224;27.976;2023-04-27T00:09:52;99774.00;;;8.76;100.00
5966;BME280;3009;43.224;27.976;2023-04-27T00:12:20;99792.88;;;8.80;100.00
5966;BME280;3009;43.224;27.976;2023-04-27T00:14:50;99788.78;;;8.74;100.00
5966;BME280;3009;43.224;27.976;2023-04-27T00:17:18;99788.34;;;8.80;100.00
5966;BME280;3009;43.224;27.976;2023-04-27T00:19:47;99804.66;;;8.70;100.00
5966;BME280;3009;43.224;27.976;2023-04-27T00:22:15;99789.38;;;8.71;100.00
5966;BME280;3009;43.224;27.976;2023-04-27T00:24:43;99789.53;;;8.65;100.00
5966;BME280;3009;43.224;27.976;2023-04-27T00:27:12;99788.41;;;8.66;100.00
5966;BME280;3009;43.224;27.976;2023-04-27T00:29:40;99793.31;;;8.64;100.00
5966;BME280;3009;43.224;27.976;2023-04-27T00:32:10;99796.25;;;8.54;100.00
5966;BME280;3009;43.224;27.976;2023-04-27T00:34:38;99796.25;;;8.54;100.00
5966;BME280;3009;43.224;27.976;2023-04-27T00:37:07;99801.84;;;8.44;100.00
5966;BME280;3009;43.224;27.976;2023-04-27T00:39:35;99802.09;;;8.33;100.00
5966;BME280;3009;43.224;27.976;2023-04-27T00:42:04;99799.91;;;8.36;100.00
5966;BME280;3009;43.224;27.976;2023-04-27T00:44:37;99798.47;;;8.29;100.00
5966;BME280;3009;43.224;27.976;2023-04-27T00:47:05;99806.78;;;8.28;100.00
5966;BME280;3009;43.224;27.976;2023-04-27T00:49:36;99819.47;;;8.22;100.00
5966;BME280;3009;43.224;27.976;2023-04-27T00:52:05;99816.81;;;8.22;100.00
5966;BME280;3009;43.224;27.976;2023-04-27T00:54:33;99823.72;;;8.23;100.00
5966;BME280;3009;43.224;27.976;2023-04-27T00:57:02;99818.84;;;8.25;100.00
5966;BME280;3009;43.224;27.976;2023-04-27T00:59:31;99833.91;;;8.21;100.00
5966;BME280;3009;43.224;27.976;2023-04-27T01:01:59;99812.22;;;8.14;100.00
5966;BME280;3009;43.224;27.976;2023-04-27T01:04:28;99842.28;;;8.06;100.00
5966;BME280;3009;43.224;27.976;2023-04-27T01:06:59;99831.44;;;8.02;100.00
5966;BME280;3009;43.224;27.976;2023-04-27T01:09:29;99810.25;;;8.06;100.00
5966;BME280;3009;43.224;27.976;2023-04-27T01:11:57;99799.22;;;7.98;100.00
5966;BME280;3009;43.224;27.976;2023-04-27T01:14:25;99807.53;;;7.97;100.00
5966;BME280;3009;43.224;27.976;2023-04-27T01:16:54;99812.94;;;7.83;100.00
5966;BME280;3009;43.224;27.976;2023-04-27T01:19:22;99802.25;;;7.83;100.00
5966;BME280;3009;43.224;27.976;2023-04-27T01:21:50;99796.13;;;7.83;100.00
5966;BME280;3009;43.224;27.976;2023-04-27T01:24:20;99793.28;;;7.79;100.00
5966;BME280;3009;43.224;27.976;2023-04-27T01:26:48;99805.06;;;7.78;99.30
5966;BME280;3009;43.224;27.976;2023-04-27T01:29:19;99793.22;;;7.70;100.00
5966;BME280;3009;43.224;27.976;2023-04-27T01:31:48;99800.44;;;7.70;100.00
5966;BME280;3009;43.224;27.976;2023-04-27T01:34:16;99796.38;;;7.72;99.83
5966;BME280;3009;43.224;27.976;2023-04-27T01:36:45;99791.81;;;7.73;100.00
5966;BME280;3009;43.224;27.976;2023-04-27T01:39:13;99793.63;;;7.63;100.00
5966;BME280;3009;43.224;27.976;2023-04-27T01:41:43;99790.50;;;7.61;100.00
5966;BME280;3009;43.224;27.976;2023-04-27T01:44:12;99794.25;;;7.60;100.00
5966;BME280;3009;43.224;27.976;2023-04-27T01:46:40;99788.41;;;7.58;100.00
5966;BME280;3009;43.224;27.976;2023-04-27T01:49:08;99797.81;;;7.56;100.00
5966;BME280;3009;43.224;27.976;2023-04-27T01:51:37;99795.34;;;7.59;100.00
5966;BME280;3009;43.224;27.976;2023-04-27T01:54:05;99799.69;;;7.55;100.00
5966;BME280;3009;43.224;27.976;2023-04-27T01:56:33;99822.34;;;7.44;100.00
5966;BME280;3009;43.224;27.976;2023-04-27T01:59:03;99792.53;;;7.42;100.00
5966;BME280;3009;43.224;27.976;2023-04-27T02:01:31;99790.16;;;7.40;100.00
5966;BME280;3009;43.224;27.976;2023-04-27T02:04:00;99780.88;;;7.38;100.00
5966;BME280;3009;43.224;27.976;2023-04-27T02:06:28;99802.81;;;7.35;100.00
5966;BME280;3009;43.224;27.976;2023-04-27T02:08:57;99787.91;;;7.34;100.00
5966;BME280;3009;43.224;27.976;2023-04-27T02:11:25;99781.09;;;7.27;100.00
5966;BME280;3009;43.224;27.976;2023-04-27T02:13:53;99772.00;;;7.28;100.00
5966;BME280;3009;43.224;27.976;2023-04-27T02:16:24;99806.78;;;7.23;100.00
5966;BME280;3009;43.224;27.976;2023-04-27T02:18:52;99806.28;;;7.21;100.00
5966;BME280;3009;43.224;27.976;2023-04-27T02:21:21;99816.06;;;7.26;99.25
5966;BME280;3009;43.224;27.976;2023-04-27T02:23:49;99811.13;;;7.19;100.00
5966;BME280;3009;43.224;27.976;2023-04-27T02:26:18;99813.03;;;7.19;98.94
5966;BME280;3009;43.224;27.976;2023-04-27T02:28:47;99821.63;;;7.16;98.87
5966;BME280;3009;43.224;27.976;2023-04-27T02:31:16;99828.50;;;7.17;98.08
5966;BME280;3009;43.224;27.976;2023-04-27T02:33:46;99834.66;;;7.17;97.38
5966;BME280;3009;43.224;27.976;2023-04-27T02:36:14;99811.44;;;7.18;96.86
5966;BME280;3009;43.224;27.976;2023-04-27T02:38:42;99815.47;;;7.15;96.97
5966;BME280;3009;43.224;27.976;2023-04-27T02:41:11;99823.28;;;7.12;97.27
5966;BME280;3009;43.224;27.976;2023-04-27T02:43:39;99851.25;;;7.14;96.71
5966;BME280;3009;43.224;27.976;2023-04-27T02:46:09;99813.31;;;7.17;96.12
5966;BME280;3009;43.224;27.976;2023-04-27T02:48:37;99853.03;;;7.19;94.78
5966;BME280;3009;43.224;27.976;2023-04-27T02:51:07;99847.59;;;7.10;95.14
5966;BME280;3009;43.224;27.976;2023-04-27T02:53:35;99847.28;;;7.12;95.09
5966;BME280;3009;43.224;27.976;2023-04-27T02:56:04;99835.63;;;7.07;95.76
5966;BME280;3009;43.224;27.976;2023-04-27T02:58:32;99836.41;;;7.08;96.77
5966;BME280;3009;43.224;27.976;2023-04-27T03:01:00;99846.28;;;7.07;96.89
5966;BME280;3009;43.224;27.976;2023-04-27T03:03:29;99847.19;;;7.03;97.09
5966;BME280;3009;43.224;27.976;2023-04-27T03:05:58;99835.44;;;7.04;97.13
5966;BME280;3009;43.224;27.976;2023-04-27T03:08:28;99862.00;;;7.09;96.73
5966;BME280;3009;43.224;27.976;2023-04-27T03:10:56;99855.59;;;7.10;95.80
5966;BME280;3009;43.224;27.976;2023-04-27T03:13:24;99846.59;;;7.06;96.15
5966;BME280;3009;43.224;27.976;2023-04-27T03:15:53;99850.84;;;7.07;95.72
5966;BME280;3009;43.224;27.976;2023-04-27T03:18:22;99844.41;;;7.08;95.78
5966;BME280;3009;43.224;27.976;2023-04-27T03:20:50;99841.75;;;7.08;94.63
5966;BME280;3009;43.224;27.976;2023-04-27T03:23:18;99862.28;;;7.07;95.02
5966;BME280;3009;43.224;27.976;2023-04-27T03:25:48;99855.59;;;7.10;95.24
5966;BME280;3009;43.224;27.976;2023-04-27T03:28:16;99860.63;;;7.12;94.74
5966;BME280;3009;43.224;27.976;2023-04-27T03:30:45;99833.84;;;7.17;94.50
5966;BME280;3009;43.224;27.976;2023-04-27T03:33:13;99874.72;;;7.12;94.91
5966;BME280;3009;43.224;27.976;2023-04-27T03:35:41;99840.00;;;7.17;93.53
5966;BME280;3009;43.224;27.976;2023-04-27T03:38:09;99831.28;;;7.12;93.85
5966;BME280;3009;43.224;27.976;2023-04-27T03:40:38;99848.75;;;7.18;93.56
5966;BME280;3009;43.224;27.976;2023-04-27T03:43:07;99868.63;;;7.12;93.87
5966;BME280;3009;43.224;27.976;2023-04-27T03:45:36;99857.47;;;7.23;93.99
5966;BME280;3009;43.224;27.976;2023-04-27T03:48:05;99860.72;;;7.20;93.24
5966;BME280;3009;43.224;27.976;2023-04-27T03:50:33;99861.50;;;7.21;93.52
5966;BME280;3009;43.224;27.976;2023-04-27T03:53:01;99860.19;;;7.32;92.42
5966;BME280;3009;43.224;27.976;2023-04-27T03:55:30;99885.41;;;7.40;91.69
5966;BME280;3009;43.224;27.976;2023-04-27T03:57:58;99874.19;;;7.66;89.80
5966;BME280;3009;43.224;27.976;2023-04-27T04:00:28;99882.84;;;7.71;88.05
5966;BME280;3009;43.224;27.976;2023-04-27T04:02:57;99902.53;;;7.61;88.62
5966;BME280;3009;43.224;27.976;2023-04-27T04:05:25;99903.47;;;7.43;89.52
5966;BME280;3009;43.224;27.976;2023-04-27T04:07:54;99881.53;;;7.46;88.72
5966;BME280;3009;43.224;27.976;2023-04-27T04:10:22;99913.44;;;7.51;88.38
5966;BME280;3009;43.224;27.976;2023-04-27T04:12:51;99900.47;;;7.58;88.42
5966;BME280;3009;43.224;27.976;2023-04-27T04:15:19;99909.81;;;7.70;86.94
5966;BME280;3009;43.224;27.976;2023-04-27T04:17:49;99919.22;;;7.81;86.92
5966;BME280;3009;43.224;27.976;2023-04-27T04:20:18;99895.09;;;8.09;85.18
5966;BME280;3009;43.224;27.976;2023-04-27T04:22:46;99910.88;;;8.42;82.84
5966;BME280;3009;43.224;27.976;2023-04-27T04:25:15;99907.84;;;8.57;82.01
5966;BME280;3009;43.224;27.976;2023-04-27T04:27:43;99904.06;;;8.81;80.48
5966;BME280;3009;43.224;27.976;2023-04-27T04:30:12;99898.50;;;8.68;80.17
5966;BME280;3009;43.224;27.976;2023-04-27T04:32:40;99909.06;;;8.74;79.34
5966;BME280;3009;43.224;27.976;2023-04-27T04:35:12;99917.03;;;8.96;77.63
5966;BME280;3009;43.224;27.976;2023-04-27T04:37:41;99955.81;;;8.40;80.02
5966;BME280;3009;43.224;27.976;2023-04-27T04:40:11;99924.81;;;8.52;80.82
5966;BME280;3009;43.224;27.976;2023-04-27T04:42:39;99914.00;;;8.58;79.22
5966;BME280;3009;43.224;27.976;2023-04-27T04:45:09;99921.09;;;8.40;80.21
5966;BME280;3009;43.224;27.976;2023-04-27T04:47:37;99913.66;;;8.50;80.76
5966;BME280;3009;43.224;27.976;2023-04-27T04:50:07;99957.78;;;9.02;76.38
5966;BME280;3009;43.224;27.976;2023-04-27T04:52:37;99942.75;;;8.83;76.34
5966;BME280;3009;43.224;27.976;2023-04-27T04:55:06;99937.09;;;8.54;77.45
5966;BME280;3009;43.224;27.976;2023-04-27T04:57:34;99950.47;;;8.40;77.61
5966;BME280;3009;43.224;27.976;2023-04-27T05:00:04;99929.38;;;8.52;78.10
5966;BME280;3009;43.224;27.976;2023-04-27T05:02:37;99927.63;;;8.47;79.15
5966;BME280;3009;43.224;27.976;2023-04-27T05:05:06;99928.75;;;8.32;79.53
5966;BME280;3009;43.224;27.976;2023-04-27T05:07:35;99926.53;;;8.48;79.13
5966;BME280;3009;43.224;27.976;2023-04-27T05:10:05;99963.63;;;8.50;78.92
5966;BME280;3009;43.224;27.976;2023-04-27T05:12:33;99930.47;;;8.51;79.56
5966;BME280;3009;43.224;27.976;2023-04-27T05:15:02;99931.56;;;8.36;80.30
5966;BME280;3009;43.224;27.976;2023-04-27T05:17:30;99932.09;;;8.38;80.76
5966;BME280;3009;43.224;27.976;2023-04-27T05:19:59;99920.06;;;8.49;81.48
5966;BME280;3009;43.224;27.976;2023-04-27T05:22:27;99922.31;;;8.33;80.81
5966;BME280;3009;43.224;27.976;2023-04-27T05:24:55;99937.50;;;8.47;81.19
5966;BME280;3009;43.224;27.976;2023-04-27T05:27:26;99956.91;;;8.39;81.85
5966;BME280;3009;43.224;27.976;2023-04-27T05:29:55;99984.63;;;8.65;82.01
5966;BME280;3009;43.224;27.976;2023-04-27T05:32:24;99981.97;;;8.65;80.51
5966;BME280;3009;43.224;27.976;2023-04-27T05:34:52;99976.38;;;8.76;79.95
5966;BME280;3009;43.224;27.976;2023-04-27T05:37:20;99972.88;;;8.98;78.69
5966;BME280;3009;43.224;27.976;2023-04-27T05:39:49;99977.44;;;8.97;78.05
5966;BME280;3009;43.224;27.976;2023-04-27T05:42:18;99969.00;;;9.13;79.27
5966;BME280;3009;43.224;27.976;2023-04-27T05:44:48;99970.09;;;9.12;78.65
5966;BME280;3009;43.224;27.976;2023-04-27T05:47:16;100019.63;;;9.32;76.93
5966;BME280;3009;43.224;27.976;2023-04-27T05:49:49;99998.94;;;9.23;75.29
5966;BME280;3009;43.224;27.976;2023-04-27T05:52:18;100003.34;;;9.19;76.29
5966;BME280;3009;43.224;27.976;2023-04-27T05:54:47;100006.28;;;9.40;75.50
5966;BME280;3009;43.224;27.976;2023-04-27T05:57:15;100008.97;;;9.49;75.63
5966;BME280;3009;43.224;27.976;2023-04-27T05:59:44;100010.81;;;9.40;74.86
5966;BME280;3009;43.224;27.976;2023-04-27T06:02:13;100024.88;;;9.46;73.81
5966;BME280;3009;43.224;27.976;2023-04-27T06:04:42;100012.69;;;9.31;75.08
5966;BME280;3009;43.224;27.976;2023-04-27T06:07:11;100019.94;;;9.39;74.56
5966;BME280;3009;43.224;27.976;2023-04-27T06:09:42;100042.00;;;9.45;72.82
5966;BME280;3009;43.224;27.976;2023-04-27T06:12:10;100022.66;;;9.48;71.65
5966;BME280;3009;43.224;27.976;2023-04-27T06:14:38;100038.44;;;9.58;72.43
5966;BME280;3009;43.224;27.976;2023-04-27T06:17:07;100034.56;;;9.73;72.33
5966;BME280;3009;43.224;27.976;2023-04-27T06:19:36;100048.13;;;9.76;70.57
5966;BME280;3009;43.224;27.976;2023-04-27T06:22:05;100048.94;;;9.86;70.53
5966;BME280;3009;43.224;27.976;2023-04-27T06:24:33;100070.19;;;9.82;68.97
5966;BME280;3009;43.224;27.976;2023-04-27T06:27:02;100055.88;;;9.87;67.35
5966;BME280;3009;43.224;27.976;2023-04-27T06:29:30;100082.53;;;10.01;66.53
5966;BME280;3009;43.224;27.976;2023-04-27T06:31:59;100079.88;;;10.09;66.11
5966;BME280;3009;43.224;27.976;2023-04-27T06:34:27;100069.63;;;10.03;66.90
5966;BME280;3009;43.224;27.976;2023-04-27T06:36:57;100082.91;;;10.25;64.95
5966;BME280;3009;43.224;27.976;2023-04-27T06:39:25;100093.38;;;10.62;63.63
5966;BME280;3009;43.224;27.976;2023-04-27T06:41:54;100093.19;;;11.28;60.89
5966;BME280;3009;43.224;27.976;2023-04-27T06:44:22;100076.28;;;12.35;58.65
5966;BME280;3009;43.224;27.976;2023-04-27T06:46:51;100093.22;;;12.35;55.87
5966;BME280;3009;43.224;27.976;2023-04-27T06:49:19;100072.44;;;12.45;55.77
5966;BME280;3009;43.224;27.976;2023-04-27T06:51:48;100093.81;;;12.83;52.85
5966;BME280;3009;43.224;27.976;2023-04-27T06:54:17;100080.72;;;12.39;54.07
5966;BME280;3009;43.224;27.976;2023-04-27T06:56:46;100083.97;;;11.94;54.47
5966;BME280;3009;43.224;27.976;2023-04-27T06:59:14;100077.25;;;12.09;55.00
5966;BME280;3009;43.224;27.976;2023-04-27T07:01:43;100088.13;;;11.74;54.55
5966;BME280;3009;43.224;27.976;2023-04-27T07:04:12;100101.53;;;11.35;56.83
5966;BME280;3009;43.224;27.976;2023-04-27T07:06:40;100099.50;;;11.24;58.39
5966;BME280;3009;43.224;27.976;2023-04-27T07:09:09;100097.97;;;10.88;58.17
5966;BME280;3009;43.224;27.976;2023-04-27T07:11:53;100096.22;;;10.83;59.21
5966;BME280;3009;43.224;27.976;2023-04-27T07:14:23;100097.78;;;10.58;58.74
5966;BME280;3009;43.224;27.976;2023-04-27T07:16:52;100089.59;;;10.80;58.43
5966;BME280;3009;43.224;27.976;2023-04-27T07:19:20;100084.41;;;10.75;59.32
5966;BME280;3009;43.224;27.976;2023-04-27T07:21:48;100096.88;;;10.89;59.43
5966;BME280;3009;43.224;27.976;2023-04-27T07:24:17;100123.50;;;10.76;58.10
5966;BME280;3009;43.224;27.976;2023-04-27T07:26:46;100100.03;;;10.64;57.92
5966;BME280;3009;43.224;27.976;2023-04-27T07:29:16;100097.00;;;10.84;56.80
5966;BME280;3009;43.224;27.976;2023-04-27T07:31:52;100098.09;;;11.00;56.25
5966;BME280;3009;43.224;27.976;2023-04-27T07:34:22;100095.09;;;11.02;56.33
5966;BME280;3009;43.224;27.976;2023-04-27T07:36:50;100108.38;;;10.98;57.80
5966;BME280;3009;43.224;27.976;2023-04-27T07:39:20;100097.66;;;10.89;58.34
5966;BME280;3009;43.224;27.976;2023-04-27T07:41:49;100099.03;;;11.22;57.15
5966;BME280;3009;43.224;27.976;2023-04-27T07:44:19;100092.72;;;11.17;56.11
5966;BME280;3009;43.224;27.976;2023-04-27T07:46:47;100097.19;;;11.61;55.48
5966;BME280;3009;43.224;27.976;2023-04-27T07:49:15;100087.56;;;11.60;54.60
5966;BME280;3009;43.224;27.976;2023-04-27T07:51:44;100079.97;;;11.62;54.35
5966;BME280;3009;43.224;27.976;2023-04-27T07:54:12;100081.16;;;11.43;55.13
5966;BME280;3009;43.224;27.976;2023-04-27T07:56:41;100087.03;;;11.75;55.16
5966;BME280;3009;43.224;27.976;2023-04-27T07:59:09;100085.22;;;11.49;54.64
5966;BME280;3009;43.224;27.976;2023-04-27T08:01:43;100077.22;;;11.32;54.77
5966;BME280;3009;43.224;27.976;2023-04-27T08:04:11;100066.31;;;11.37;53.36
5966;BME280;3009;43.224;27.976;2023-04-27T08:06:42;100069.81;;;11.29;51.02
5966;BME280;3009;43.224;27.976;2023-04-27T08:09:13;100086.84;;;11.33;50.50
5966;BME280;3009;43.224;27.976;2023-04-27T08:11:41;100073.88;;;11.35;50.74
5966;BME280;3009;43.224;27.976;2023-04-27T08:14:10;100060.22;;;11.58;50.53
5966;BME280;3009;43.224;27.976;2023-04-27T08:16:42;100051.53;;;11.99;50.44
5966;BME280;3009;43.224;27.976;2023-04-27T08:19:10;100060.13;;;11.84;50.24
5966;BME280;3009;43.224;27.976;2023-04-27T08:21:39;100061.69;;;11.94;50.71
5966;BME280;3009;43.224;27.976;2023-04-27T08:24:07;100075.91;;;11.94;48.37
5966;BME280;3009;43.224;27.976;2023-04-27T08:26:35;100043.69;;;11.94;48.56
5966;BME280;3009;43.224;27.976;2023-04-27T08:29:04;100034.06;;;12.14;48.24
5966;BME280;3009;43.224;27.976;2023-04-27T08:31:54;100072.09;;;12.46;48.03
5966;BME280;3009;43.224;27.976;2023-04-27T08:34:23;100039.84;;;12.46;48.69
5966;BME280;3009;43.224;27.976;2023-04-27T08:36:51;100039.13;;;12.37;47.21
5966;BME280;3009;43.224;27.976;2023-04-27T08:39:20;100037.03;;;12.43;46.81
5966;BME280;3009;43.224;27.976;2023-04-27T08:41:48;100047.84;;;12.34;45.63
5966;BME280;3009;43.224;27.976;2023-04-27T08:44:17;100031.66;;;12.21;46.89
5966;BME280;3009;43.224;27.976;2023-04-27T08:46:45;100040.06;;;12.41;47.59
5966;BME280;3009;43.224;27.976;2023-04-27T08:49:16;100046.91;;;12.51;47.33
5966;BME280;3009;43.224;27.976;2023-04-27T08:51:44;100051.69;;;12.66;45.77
5966;BME280;3009;43.224;27.976;2023-04-27T08:54:13;100041.78;;;12.79;45.40
5966;BME280;3009;43.224;27.976;2023-04-27T08:56:41;100047.63;;;12.60;46.17
5966;BME280;3009;43.224;27.976;2023-04-27T08:59:13;100044.34;;;12.75;46.32
5966;BME280;3009;43.224;27.976;2023-04-27T09:01:43;100054.09;;;12.80;45.99
5966;BME280;3009;43.224;27.976;2023-04-27T09:04:13;100089.94;;;12.93;46.24
5966;BME280;3009;43.224;27.976;2023-04-27T09:06:44;100055.19;;;13.34;46.37
5966;BME280;3009;43.224;27.976;2023-04-27T09:09:20;100060.06;;;13.65;44.82
5966;BME280;3009;43.224;27.976;2023-04-27T09:11:49;100082.81;;;13.43;44.75
5966;BME280;3009;43.224;27.976;2023-04-27T09:14:19;100093.94;;;13.66;44.45
5966;BME280;3009;43.224;27.976;2023-04-27T09:16:53;100087.88;;;13.57;45.68
5966;BME280;3009;43.224;27.976;2023-04-27T09:19:24;100091.81;;;14.21;45.16
5966;BME280;3009;43.224;27.976;2023-04-27T09:22:04;100095.81;;;14.40;44.11
5966;BME280;3009;43.224;27.976;2023-04-27T09:24:33;100099.59;;;13.98;43.22
5966;BME280;3009;43.224;27.976;2023-04-27T09:27:01;100083.06;;;13.87;44.76
5966;BME280;3009;43.224;27.976;2023-04-27T09:29:35;100091.81;;;13.84;44.14
5966;BME280;3009;43.224;27.976;2023-04-27T09:32:14;100091.63;;;13.89;44.17
5966;BME280;3009;43.224;27.976;2023-04-27T09:34:43;100080.56;;;14.19;42.91
5966;BME280;3009;43.224;27.976;2023-04-27T09:37:14;100103.59;;;14.29;43.41
5966;BME280;3009;43.224;27.976;2023-04-27T09:39:42;100113.47;;;14.25;43.91
5966;BME280;3009;43.224;27.976;2023-04-27T09:42:11;100106.63;;;13.90;42.46
5966;BME280;3009;43.224;27.976;2023-04-27T09:44:39;100106.66;;;14.03;44.63
5966;BME280;3009;43.224;27.976;2023-04-27T09:47:09;100124.69;;;14.64;42.86
5966;BME280;3009;43.224;27.976;2023-04-27T09:49:38;100116.19;;;13.88;43.67
5966;BME280;3009;43.224;27.976;2023-04-27T09:52:06;100117.44;;;14.03;44.54
5966;BME280;3009;43.224;27.976;2023-04-27T09:54:36;100113.84;;;13.86;43.86
5966;BME280;3009;43.224;27.976;2023-04-27T09:57:13;100109.44;;;13.69;44.62
5966;BME280;3009;43.224;27.976;2023-04-27T09:59:58;100114.50;;;14.20;44.29
5966;BME280;3009;43.224;27.976;2023-04-27T10:02:40;100119.31;;;14.39;43.87
5966;BME280;3009;43.224;27.976;2023-04-27T10:05:36;100122.16;;;14.18;43.79
5966;BME280;3009;43.224;27.976;2023-04-27T10:08:08;100120.56;;;14.17;43.70
5966;BME280;3009;43.224;27.976;2023-04-27T10:10:48;100132.38;;;14.12;43.56
5966;BME280;3009;43.224;27.976;2023-04-27T10:13:20;100151.34;;;14.16;44.50
5966;BME280;3009;43.224;27.976;2023-04-27T10:15:49;100125.50;;;13.90;45.31
5966;BME280;3009;43.224;27.976;2023-04-27T10:18:25;100136.53;;;13.97;44.00
5966;BME280;3009;43.224;27.976;2023-04-27T10:20:54;100143.25;;;14.16;44.55
5966;BME280;3009;43.224;27.976;2023-04-27T10:23:23;100139.66;;;14.24;44.81
5966;BME280;3009;43.224;27.976;2023-04-27T10:25:53;100139.06;;;13.69;45.01
5966;BME280;3009;43.224;27.976;2023-04-27T10:28:23;100139.22;;;13.85;44.56
5966;BME280;3009;43.224;27.976;2023-04-27T10:30:51;100138.66;;;14.04;44.57
5966;BME280;3009;43.224;27.976;2023-04-27T10:33:21;100141.34;;;14.29;44.46
5966;BME280;3009;43.224;27.976;2023-04-27T10:35:55;100143.34;;;14.44;43.82
5966;BME280;3009;43.224;27.976;2023-04-27T10:38:27;100142.13;;;14.29;43.95
5966;BME280;3009;43.224;27.976;2023-04-27T10:40:58;100143.22;;;14.53;43.22
5966;BME280;3009;43.224;27.976;2023-04-27T10:43:28;100141.47;;;14.08;43.16
5966;BME280;3009;43.224;27.976;2023-04-27T10:46:06;100150.84;;;14.76;43.29
5966;BME280;3009;43.224;27.976;2023-04-27T10:48:34;100136.28;;;14.93;42.78
5966;BME280;3009;43.224;27.976;2023-04-27T10:51:03;100134.69;;;14.63;42.81
5966;BME280;3009;43.224;27.976;2023-04-27T10:53:35;100145.94;;;14.41;42.38
5966;BME280;3009;43.224;27.976;2023-04-27T10:56:05;100133.16;;;14.13;43.71
5966;BME280;3009;43.224;27.976;2023-04-27T10:58:34;100145.06;;;14.24;43.37
5966;BME280;3009;43.224;27.976;2023-04-27T11:01:23;100142.00;;;13.76;43.77
5966;BME280;3009;43.224;27.976;2023-04-27T11:03:54;100145.38;;;13.86;44.14
5966;BME280;3009;43.224;27.976;2023-04-27T11:06:22;100128.63;;;13.68;44.95
5966;BME280;3009;43.224;27.976;2023-04-27T11:08:51;100139.22;;;13.85;44.36
5966;BME280;3009;43.224;27.976;2023-04-27T11:11:21;100123.81;;;14.35;44.56
5966;BME280;3009;43.224;27.976;2023-04-27T11:13:50;100120.56;;;14.29;43.56
5966;BME280;3009;43.224;27.976;2023-04-27T11:16:19;100124.84;;;14.18;43.39
5966;BME280;3009;43.224;27.976;2023-04-27T11:18:47;100107.09;;;14.05;42.78
5966;BME280;3009;43.224;27.976;2023-04-27T11:21:17;100117.09;;;13.92;43.85
5966;BME280;3009;43.224;27.976;2023-04-27T11:23:48;100134.72;;;14.14;43.58
5966;BME280;3009;43.224;27.976;2023-04-27T11:26:17;100130.91;;;13.90;43.82
5966;BME280;3009;43.224;27.976;2023-04-27T11:29:00;100120.13;;;13.78;44.22
5966;BME280;3009;43.224;27.976;2023-04-27T11:31:40;100122.38;;;14.00;43.86
5966;BME280;3009;43.224;27.976;2023-04-27T11:34:14;100125.75;;;13.97;43.31
5966;BME280;3009;43.224;27.976;2023-04-27T11:36:55;100128.44;;;13.85;43.30
5966;BME280;3009;43.224;27.976;2023-04-27T11:39:37;100117.75;;;13.64;43.53
5966;BME280;3009;43.224;27.976;2023-04-27T11:42:14;100121.59;;;13.75;43.86
5966;BME280;3009;43.224;27.976;2023-04-27T11:44:51;100157.41;;;14.00;43.80
5966;BME280;3009;43.224;27.976;2023-04-27T11:47:20;100129.22;;;14.10;43.72
5966;BME280;3009;43.224;27.976;2023-04-27T11:49:49;100120.78;;;13.87;42.59
5966;BME280;3009;43.224;27.976;2023-04-27T11:52:18;100122.03;;;14.02;43.21
5966;BME280;3009;43.224;27.976;2023-04-27T11:54:47;100134.38;;;14.28;43.32
5966;BME280;3009;43.224;27.976;2023-04-27T11:57:16;100122.03;;;14.27;43.06
5966;BME280;3009;43.224;27.976;2023-04-27T11:59:44;100140.34;;;14.21;42.48
5966;BME280;3009;43.224;27.976;2023-04-27T12:02:14;100126.88;;;14.09;42.59
5966;BME280;3009;43.224;27.976;2023-04-27T12:04:42;100128.91;;;14.12;42.40
5966;BME280;3009;43.224;27.976;2023-04-27T12:07:11;100149.22;;;14.09;42.90
5966;BME280;3009;43.224;27.976;2023-04-27T12:09:40;100138.66;;;14.04;42.00
5966;BME280;3009;43.224;27.976;2023-04-27T12:12:09;100133.72;;;14.43;42.44
5966;BME280;3009;43.224;27.976;2023-04-27T12:14:38;100145.94;;;14.53;41.60
5966;BME280;3009;43.224;27.976;2023-04-27T12:17:07;100153.59;;;14.51;41.45
5966;BME280;3009;43.224;27.976;2023-04-27T12:19:36;100139.44;;;14.29;41.99
5966;BME280;3009;43.224;27.976;2023-04-27T12:22:05;100126.41;;;14.07;42.24
5966;BME280;3009;43.224;27.976;2023-04-27T12:24:34;100144.41;;;14.03;42.12
5966;BME280;3009;43.224;27.976;2023-04-27T12:27:03;100143.06;;;14.09;42.58
5966;BME280;3009;43.224;27.976;2023-04-27T12:29:32;100138.97;;;14.40;42.20
5966;BME280;3009;43.224;27.976;2023-04-27T12:32:01;100129.66;;;14.49;42.14
5966;BME280;3009;43.224;27.976;2023-04-27T12:34:29;100151.22;;;14.62;42.89
5966;BME280;3009;43.224;27.976;2023-04-27T12:36:59;100141.94;;;14.22;42.77
5966;BME280;3009;43.224;27.976;2023-04-27T12:39:27;100141.75;;;13.69;43.39
5966;BME280;3009;43.224;27.976;2023-04-27T12:41:56;100139.59;;;13.50;43.93
5966;BME280;3009;43.224;27.976;2023-04-27T12:44:25;100142.13;;;13.80;43.23
5966;BME280;3009;43.224;27.976;2023-04-27T12:46:53;100143.50;;;13.86;43.11
5966;BME280;3009;43.224;27.976;2023-04-27T12:49:22;100155.38;;;13.97;43.32
5966;BME280;3009;43.224;27.976;2023-04-27T12:51:51;100143.03;;;13.96;43.91
5966;BME280;3009;43.224;27.976;2023-04-27T12:54:21;100146.97;;;14.36;43.18
5966;BME280;3009;43.224;27.976;2023-04-27T12:56:49;100154.38;;;14.39;42.72
5966;BME280;3009;43.224;27.976;2023-04-27T12:59:18;100158.44;;;14.33;42.35
5966;BME280;3009;43.224;27.976;2023-04-27T13:01:46;100173.00;;;13.95;43.13
5966;BME280;3009;43.224;27.976;2023-04-27T13:04:17;100158.41;;;13.96;43.55
5966;BME280;3009;43.224;27.976;2023-04-27T13:06:48;100162.03;;;14.25;43.53
5966;BME280;3009;43.224;27.976;2023-04-27T13:09:16;100162.78;;;14.50;43.03
5966;BME280;3009;43.224;27.976;2023-04-27T13:11:46;100164.94;;;14.97;42.08
5966;BME280;3009;43.224;27.976;2023-04-27T13:14:14;100171.50;;;14.84;42.65
5966;BME280;3009;43.224;27.976;2023-04-27T13:16:43;100162.56;;;14.43;42.67
5966;BME280;3009;43.224;27.976;2023-04-27T13:19:11;100151.00;;;14.42;43.09
5966;BME280;3009;43.224;27.976;2023-04-27T13:21:40;100158.41;;;14.70;42.58